createdAt,value
2017-09-22T00:00:18.582Z,995.38
2017-09-22T00:01:28.531Z,995.36
2017-09-22T00:02:38.806Z,995.39
2017-09-22T00:03:49.076Z,995.37
2017-09-22T00:04:58.705Z,995.37
2017-09-22T00:06:08.976Z,995.35
2017-09-22T00:07:18.602Z,995.34
2017-09-22T00:08:28.873Z,995.36
2017-09-22T00:09:38.824Z,995.36
2017-09-22T00:10:48.776Z,995.38
2017-09-22T00:11:58.724Z,995.33
2017-09-22T00:13:08.992Z,995.35
2017-09-22T00:14:18.302Z,995.35
2017-09-22T00:15:28.576Z,995.35
2017-09-22T00:16:38.523Z,995.38
2017-09-22T00:17:48.803Z,995.36
2017-09-22T00:18:59.076Z,995.33
2017-09-22T00:20:09.348Z,995.33
2017-09-22T00:21:19.305Z,995.32
2017-09-22T00:22:29.255Z,995.35
2017-09-22T00:23:38.891Z,995.34
2017-09-22T00:24:48.843Z,995.35
2017-09-22T00:25:58.793Z,995.35
2017-09-22T00:27:08.421Z,995.37
2017-09-22T00:28:18.695Z,995.39
2017-09-22T00:29:28.643Z,995.39
2017-09-22T00:30:38.597Z,995.4
2017-09-22T00:31:48.581Z,995.43
2017-09-22T00:32:58.529Z,995.39
2017-09-22T00:34:08.161Z,995.42
2017-09-22T00:35:17.785Z,995.4
2017-09-22T00:36:27.416Z,995.41
2017-09-22T00:37:36.724Z,995.45
2017-09-22T00:38:46.996Z,995.4
2017-09-22T00:39:56.947Z,995.42
2017-09-22T00:41:06.573Z,995.37
2017-09-22T00:42:16.856Z,995.39
2017-09-22T00:43:27.124Z,995.39
2017-09-22T00:44:37.391Z,995.34
2017-09-22T00:45:47.340Z,995.37
2017-09-22T00:46:57.287Z,995.33
2017-09-22T00:48:07.554Z,995.35
2017-09-22T00:49:17.821Z,995.32
2017-09-22T00:50:28.098Z,995.31
2017-09-22T00:51:38.052Z,995.31
2017-09-22T00:52:47.685Z,995.31
2017-09-22T00:53:57.951Z,995.3
2017-09-22T00:55:07.895Z,995.31
2017-09-22T00:56:18.172Z,995.31
2017-09-22T00:57:28.121Z,995.29
2017-09-22T00:58:38.397Z,995.31
2017-09-22T00:59:48.669Z,995.29
2017-09-22T01:00:58.942Z,995.32
2017-09-22T01:02:08.897Z,995.3
2017-09-22T01:03:18.526Z,995.28
2017-09-22T01:04:28.804Z,995.29
2017-09-22T01:05:39.078Z,995.28
2017-09-22T01:06:49.354Z,995.31
2017-09-22T01:07:58.984Z,995.31
2017-09-22T01:09:08.933Z,995.31
2017-09-22T01:10:18.885Z,995.28
2017-09-22T01:11:29.154Z,995.29
2017-09-22T01:12:39.116Z,995.3
2017-09-22T01:13:49.063Z,995.32
2017-09-22T01:14:59.352Z,995.32
2017-09-22T01:16:09.306Z,995.32
2017-09-22T01:17:19.577Z,995.32
2017-09-22T01:18:29.206Z,995.32
2017-09-22T01:19:39.154Z,995.31
2017-09-22T01:20:49.430Z,995.32
2017-09-22T01:21:59.715Z,995.28
2017-09-22T01:23:09.670Z,995.3
2017-09-22T01:24:19.622Z,995.31
2017-09-22T01:25:29.574Z,995.29
2017-09-22T01:26:39.527Z,995.31
2017-09-22T01:27:49.805Z,995.28
2017-09-22T01:29:00.079Z,995.26
2017-09-22T01:30:09.390Z,995.29
2017-09-22T01:31:19.663Z,995.29
2017-09-22T01:32:29.622Z,995.32
2017-09-22T01:33:39.250Z,995.29
2017-09-22T01:34:49.200Z,995.31
2017-09-22T01:35:59.149Z,995.3
2017-09-22T01:37:09.428Z,995.33
2017-09-22T01:38:19.759Z,995.27
2017-09-22T01:39:29.387Z,995.29
2017-09-22T01:40:38.696Z,995.29
2017-09-22T01:41:48.650Z,995.27
2017-09-22T01:42:58.924Z,995.26
2017-09-22T01:44:08.877Z,995.21
2017-09-22T01:45:18.825Z,995.25
2017-09-22T01:46:28.777Z,995.25
2017-09-22T01:47:39.046Z,995.26
2017-09-22T01:48:49.000Z,995.27
2017-09-22T01:49:58.635Z,995.23
2017-09-22T01:51:08.596Z,995.21
2017-09-22T01:52:18.225Z,995.24
2017-09-22T01:53:28.504Z,995.26
2017-09-22T01:54:38.458Z,995.21
2017-09-22T01:55:48.410Z,995.19
2017-09-22T01:56:58.694Z,995.2
2017-09-22T01:58:08.324Z,995.16
2017-09-22T01:59:18.597Z,995.16
2017-09-22T02:00:28.867Z,995.16
2017-09-22T02:01:38.814Z,995.13
2017-09-22T02:02:48.130Z,995.12
2017-09-22T02:03:58.402Z,995.07
2017-09-22T02:05:08.030Z,995.11
2017-09-22T02:06:18.302Z,995.12
2017-09-22T02:07:28.251Z,995.12
2017-09-22T02:08:38.522Z,995.14
2017-09-22T02:09:48.794Z,995.17
2017-09-22T02:10:59.063Z,995.15
2017-09-22T02:12:08.692Z,995.15
2017-09-22T02:13:18.967Z,995.19
2017-09-22T02:14:29.250Z,995.14
2017-09-22T02:15:39.206Z,995.13
2017-09-22T02:16:49.158Z,995.13
2017-09-22T02:17:58.793Z,995.07
2017-09-22T02:19:08.743Z,995.05
2017-09-22T02:20:19.020Z,995.08
2017-09-22T02:21:29.289Z,995.04
2017-09-22T02:22:39.251Z,995.07
2017-09-22T02:23:49.202Z,995.02
2017-09-22T02:24:59.503Z,995.08
2017-09-22T02:26:09.780Z,995.06
2017-09-22T02:27:19.733Z,995.1
2017-09-22T02:28:30.009Z,995.11
2017-09-22T02:29:39.962Z,995.12
2017-09-22T02:30:50.234Z,995.16
2017-09-22T02:32:00.524Z,995.13
2017-09-22T02:33:09.839Z,995.17
2017-09-22T02:34:19.797Z,995.16
2017-09-22T02:35:30.084Z,995.18
2017-09-22T02:36:40.357Z,995.16
2017-09-22T02:37:50.313Z,995.16
2017-09-22T02:39:00.601Z,995.15
2017-09-22T02:40:10.563Z,995.17
2017-09-22T02:41:20.836Z,995.15
2017-09-22T02:42:30.793Z,995.16
2017-09-22T02:43:40.741Z,995.18
2017-09-22T02:44:51.013Z,995.15
2017-09-22T02:46:01.311Z,995.12
2017-09-22T02:47:11.268Z,995.16
2017-09-22T02:48:21.555Z,995.18
2017-09-22T02:49:31.858Z,995.15
2017-09-22T02:50:42.140Z,995.18
2017-09-22T02:51:52.416Z,995.18
2017-09-22T02:53:02.694Z,995.17
2017-09-22T02:54:12.647Z,995.19
2017-09-22T02:55:22.946Z,995.18
2017-09-22T02:56:32.903Z,995.19
2017-09-22T02:57:43.179Z,995.19
2017-09-22T02:58:53.141Z,995.18
2017-09-22T03:00:03.094Z,995.2
2017-09-22T03:01:12.721Z,995.19
2017-09-22T03:02:23.004Z,995.19
2017-09-22T03:03:33.276Z,995.18
2017-09-22T03:04:42.902Z,995.18
2017-09-22T03:05:52.210Z,995.15
2017-09-22T03:07:01.839Z,995.16
2017-09-22T03:08:11.473Z,995.2
2017-09-22T03:09:21.106Z,995.16
2017-09-22T03:10:31.385Z,995.18
2017-09-22T03:11:41.342Z,995.19
2017-09-22T03:12:50.969Z,995.21
2017-09-22T03:14:00.915Z,995.22
2017-09-22T03:15:11.186Z,995.2
2017-09-22T03:16:21.460Z,995.25
2017-09-22T03:17:31.737Z,995.25
2017-09-22T03:18:41.362Z,995.27
2017-09-22T03:19:51.675Z,995.27
2017-09-22T03:21:01.624Z,995.29
2017-09-22T03:22:11.578Z,995.26
2017-09-22T03:23:21.847Z,995.34
2017-09-22T03:24:32.114Z,995.27
2017-09-22T03:25:42.069Z,995.22
2017-09-22T03:26:51.701Z,995.25
2017-09-22T03:28:01.658Z,995.28
2017-09-22T03:29:11.281Z,995.27
2017-09-22T03:30:21.557Z,995.24
2017-09-22T03:31:31.830Z,995.27
2017-09-22T03:32:41.461Z,995.29
2017-09-22T03:33:51.741Z,995.28
2017-09-22T03:35:01.693Z,995.31
2017-09-22T03:36:11.643Z,995.28
2017-09-22T03:37:21.589Z,995.26
2017-09-22T03:38:31.868Z,995.26
2017-09-22T03:39:41.816Z,995.26
2017-09-22T03:40:51.764Z,995.27
2017-09-22T03:42:01.723Z,995.28
2017-09-22T03:43:11.347Z,995.26
2017-09-22T03:44:21.301Z,995.23
2017-09-22T03:45:31.573Z,995.21
2017-09-22T03:46:41.846Z,995.22
2017-09-22T03:47:51.797Z,995.18
2017-09-22T03:49:01.432Z,995.2
2017-09-22T03:50:11.705Z,995.21
2017-09-22T03:51:21.655Z,995.21
2017-09-22T03:52:31.932Z,995.19
2017-09-22T03:53:41.886Z,995.22
2017-09-22T03:54:52.162Z,995.23
2017-09-22T03:56:02.439Z,995.25
2017-09-22T03:57:12.723Z,995.31
2017-09-22T03:58:22.999Z,995.25
2017-09-22T03:59:33.287Z,995.25
2017-09-22T04:00:43.601Z,995.29
2017-09-22T04:01:53.556Z,995.25
2017-09-22T04:03:03.832Z,995.26
2017-09-22T04:04:14.107Z,995.27
2017-09-22T04:05:24.057Z,995.24
2017-09-22T04:06:34.038Z,995.27
2017-09-22T04:07:44.312Z,995.23
2017-09-22T04:08:54.261Z,995.22
2017-09-22T04:10:03.894Z,995.23
2017-09-22T04:11:13.851Z,995.23
2017-09-22T04:12:23.479Z,995.23
2017-09-22T04:13:33.112Z,995.22
2017-09-22T04:14:43.390Z,995.24
2017-09-22T04:15:53.029Z,995.3
2017-09-22T04:17:03.296Z,995.3
2017-09-22T04:18:13.242Z,995.28
2017-09-22T04:19:23.195Z,995.24
2017-09-22T04:20:33.469Z,995.22
2017-09-22T04:21:43.420Z,995.22
2017-09-22T04:22:53.711Z,995.19
2017-09-22T04:24:03.020Z,995.19
2017-09-22T04:25:12.971Z,995.23
2017-09-22T04:26:22.600Z,995.23
2017-09-22T04:27:32.556Z,995.22
2017-09-22T04:28:42.836Z,995.27
2017-09-22T04:29:52.788Z,995.24
2017-09-22T04:31:02.420Z,995.22
2017-09-22T04:32:11.727Z,995.24
2017-09-22T04:33:21.998Z,995.24
2017-09-22T04:34:31.948Z,995.23
2017-09-22T04:35:42.229Z,995.26
2017-09-22T04:36:51.854Z,995.27
2017-09-22T04:38:01.805Z,995.26
2017-09-22T04:39:11.111Z,995.21
2017-09-22T04:40:21.395Z,995.19
2017-09-22T04:41:31.748Z,995.17
2017-09-22T04:42:41.381Z,995.19
2017-09-22T04:43:51.655Z,995.16
2017-09-22T04:45:01.607Z,995.17
2017-09-22T04:46:11.559Z,995.11
2017-09-22T04:47:21.545Z,995.14
2017-09-22T04:48:31.869Z,995.16
2017-09-22T04:49:42.143Z,995.16
2017-09-22T04:50:52.411Z,995.17
2017-09-22T04:52:02.927Z,995.19
2017-09-22T04:53:12.234Z,995.18
2017-09-22T04:54:21.860Z,995.18
2017-09-22T04:55:31.845Z,995.18
2017-09-22T04:56:42.117Z,995.14
2017-09-22T04:57:52.404Z,995.17
2017-09-22T04:59:01.389Z,995.2
2017-09-22T05:00:11.337Z,995.2
2017-09-22T05:01:20.970Z,995.22
2017-09-22T05:02:30.925Z,995.23
2017-09-22T05:03:41.202Z,995.21
2017-09-22T05:04:51.477Z,995.24
2017-09-22T05:06:01.753Z,995.25
2017-09-22T05:07:11.719Z,995.27
2017-09-22T05:08:21.673Z,995.29
2017-09-22T05:09:31.947Z,995.27
2017-09-22T05:10:41.902Z,995.28
2017-09-22T05:11:51.881Z,995.3
2017-09-22T05:13:02.183Z,995.29
2017-09-22T05:14:12.176Z,995.35
2017-09-22T05:15:22.132Z,995.41
2017-09-22T05:16:32.089Z,995.43
2017-09-22T05:17:42.047Z,995.43
2017-09-22T05:18:52.321Z,995.44
2017-09-22T05:20:01.954Z,995.42
2017-09-22T05:21:12.231Z,995.44
2017-09-22T05:22:22.506Z,995.46
2017-09-22T05:23:32.776Z,995.47
2017-09-22T05:24:43.046Z,995.47
2017-09-22T05:25:52.995Z,995.51
2017-09-22T05:27:02.954Z,995.53
2017-09-22T05:28:13.221Z,995.48
2017-09-22T05:29:23.496Z,995.51
2017-09-22T05:30:33.764Z,995.5
2017-09-22T05:31:43.725Z,995.48
2017-09-22T05:32:54.246Z,995.43
2017-09-22T05:34:03.877Z,995.39
2017-09-22T05:35:14.154Z,995.44
2017-09-22T05:36:24.439Z,995.46
2017-09-22T05:37:34.401Z,995.45
2017-09-22T05:38:44.669Z,995.48
2017-09-22T05:39:54.955Z,995.47
2017-09-22T05:41:04.582Z,995.47
2017-09-22T05:42:14.537Z,995.48
2017-09-22T05:43:24.812Z,995.49
2017-09-22T05:44:34.773Z,995.45
2017-09-22T05:45:44.729Z,995.46
2017-09-22T05:46:55.010Z,995.43
2017-09-22T05:48:05.286Z,995.42
2017-09-22T05:49:14.909Z,995.43
2017-09-22T05:50:25.187Z,995.4
2017-09-22T05:51:35.144Z,995.43
2017-09-22T05:52:44.772Z,995.38
2017-09-22T05:53:55.048Z,995.37
2017-09-22T05:55:05.002Z,995.36
2017-09-22T05:56:15.276Z,995.35
2017-09-22T05:57:25.558Z,995.35
2017-09-22T05:58:35.189Z,995.39
2017-09-22T05:59:45.473Z,995.41
2017-09-22T06:00:55.744Z,995.42
2017-09-22T06:02:05.698Z,995.43
2017-09-22T06:03:15.986Z,995.47
2017-09-22T06:04:25.298Z,995.48
2017-09-22T06:05:35.252Z,995.48
2017-09-22T06:06:44.885Z,995.54
2017-09-22T06:07:55.156Z,995.49
2017-09-22T06:09:05.430Z,995.53
2017-09-22T06:10:15.702Z,995.55
2017-09-22T06:11:25.986Z,995.56
2017-09-22T06:12:36.266Z,995.56
2017-09-22T06:13:46.548Z,995.57
2017-09-22T06:14:56.831Z,995.55
2017-09-22T06:16:06.781Z,995.59
2017-09-22T06:17:16.410Z,995.6
2017-09-22T06:18:26.689Z,995.63
2017-09-22T06:19:36.962Z,995.59
2017-09-22T06:20:47.241Z,995.61
2017-09-22T06:21:57.515Z,995.56
2017-09-22T06:23:07.462Z,995.53
2017-09-22T06:24:17.101Z,995.56
2017-09-22T06:25:26.411Z,995.65
2017-09-22T06:26:36.684Z,995.63
2017-09-22T06:27:45.996Z,995.64
2017-09-22T06:28:56.269Z,995.66
2017-09-22T06:30:06.544Z,995.7
2017-09-22T06:31:16.826Z,995.71
2017-09-22T06:32:27.103Z,995.72
2017-09-22T06:33:37.062Z,995.7
2017-09-22T06:34:46.699Z,995.72
2017-09-22T06:35:56.974Z,995.69
2017-09-22T06:37:06.920Z,995.67
2017-09-22T06:38:16.546Z,995.74
2017-09-22T06:39:26.818Z,995.72
2017-09-22T06:40:36.775Z,995.67
2017-09-22T06:41:47.050Z,995.7
2017-09-22T06:42:56.685Z,995.63
2017-09-22T06:44:06.968Z,995.68
2017-09-22T06:45:17.247Z,995.72
2017-09-22T06:46:27.244Z,995.67
2017-09-22T06:47:37.196Z,995.71
2017-09-22T06:48:47.470Z,995.73
2017-09-22T06:49:57.746Z,995.66
2017-09-22T06:51:07.376Z,995.69
2017-09-22T06:52:17.010Z,995.66
2017-09-22T06:53:27.288Z,995.66
2017-09-22T06:54:36.925Z,995.67
2017-09-22T06:55:47.199Z,995.66
2017-09-22T06:56:56.828Z,995.62
2017-09-22T06:58:07.134Z,995.62
2017-09-22T06:59:17.087Z,995.59
2017-09-22T07:00:27.357Z,995.62
2017-09-22T07:01:36.996Z,995.62
2017-09-22T07:02:46.953Z,995.66
2017-09-22T07:03:56.584Z,995.67
2017-09-22T07:05:06.860Z,995.66
2017-09-22T07:06:16.821Z,995.7
2017-09-22T07:07:27.100Z,995.66
2017-09-22T07:08:37.060Z,995.68
2017-09-22T07:09:47.012Z,995.67
2017-09-22T07:10:57.283Z,995.66
2017-09-22T07:12:07.241Z,995.66
2017-09-22T07:13:16.874Z,995.63
2017-09-22T07:14:26.828Z,995.62
2017-09-22T07:15:36.788Z,995.63
2017-09-22T07:16:46.750Z,995.6
2017-09-22T07:17:57.031Z,995.56
2017-09-22T07:19:06.994Z,995.62
2017-09-22T07:20:17.276Z,995.61
2017-09-22T07:21:27.551Z,995.62
2017-09-22T07:22:37.505Z,995.66
2017-09-22T07:23:47.782Z,995.7
2017-09-22T07:24:57.421Z,995.67
2017-09-22T07:26:07.699Z,995.65
2017-09-22T07:27:17.974Z,995.65
2017-09-22T07:28:27.605Z,995.66
2017-09-22T07:29:37.886Z,995.67
2017-09-22T07:30:47.845Z,995.7
2017-09-22T07:31:58.120Z,995.71
2017-09-22T07:33:08.401Z,995.7
2017-09-22T07:34:18.678Z,995.67
2017-09-22T07:35:28.634Z,995.64
2017-09-22T07:36:38.906Z,995.62
2017-09-22T07:37:49.212Z,995.6
2017-09-22T07:38:59.485Z,995.64
2017-09-22T07:40:09.118Z,995.67
2017-09-22T07:41:19.070Z,995.66
2017-09-22T07:42:29.027Z,995.68
2017-09-22T07:43:39.308Z,995.67
2017-09-22T07:44:48.945Z,995.68
2017-09-22T07:45:59.220Z,995.7
2017-09-22T07:47:08.849Z,995.74
2017-09-22T07:48:19.140Z,995.74
2017-09-22T07:49:29.094Z,995.78
2017-09-22T07:50:39.366Z,995.74
2017-09-22T07:51:49.033Z,995.78
2017-09-22T07:52:58.996Z,995.74
2017-09-22T07:54:08.625Z,995.7
2017-09-22T07:55:18.908Z,995.64
2017-09-22T07:56:28.865Z,995.64
2017-09-22T07:57:38.814Z,995.65
2017-09-22T08:00:01.491Z,995.63
2017-09-22T08:01:11.770Z,995.63
2017-09-22T08:02:22.047Z,995.65
2017-09-22T08:03:32.003Z,995.69
2017-09-22T08:04:41.966Z,995.72
2017-09-22T08:05:51.599Z,995.77
2017-09-22T08:07:01.877Z,995.75
2017-09-22T08:08:11.506Z,995.77
2017-09-22T08:09:21.462Z,995.76
2017-09-22T08:10:31.735Z,995.75
2017-09-22T08:11:42.007Z,995.75
2017-09-22T08:12:52.292Z,995.75
2017-09-22T08:14:02.246Z,995.76
2017-09-22T08:15:12.521Z,995.79
2017-09-22T08:16:22.150Z,995.83
2017-09-22T08:17:31.781Z,995.8
2017-09-22T08:18:41.735Z,995.84
2017-09-22T08:19:52.055Z,995.8
2017-09-22T08:21:02.333Z,995.85
2017-09-22T08:22:11.639Z,995.88
2017-09-22T08:23:21.915Z,995.86
2017-09-22T08:24:31.879Z,995.89
2017-09-22T08:25:42.153Z,995.91
2017-09-22T08:26:52.431Z,995.93
2017-09-22T08:28:02.711Z,995.94
2017-09-22T08:29:12.665Z,995.93
2017-09-22T08:30:22.299Z,995.94
2017-09-22T08:31:32.576Z,996
2017-09-22T08:32:42.533Z,995.98
2017-09-22T08:33:52.806Z,995.97
2017-09-22T08:35:02.440Z,996
2017-09-22T08:36:12.397Z,996.01
2017-09-22T08:37:22.348Z,995.92
2017-09-22T08:38:32.621Z,995.91
2017-09-22T08:39:42.256Z,995.91
2017-09-22T08:40:52.541Z,995.87
2017-09-22T08:42:02.174Z,995.87
2017-09-22T08:43:12.461Z,995.87
2017-09-22T08:44:22.419Z,995.81
2017-09-22T08:45:32.702Z,995.79
2017-09-22T08:46:42.654Z,995.84
2017-09-22T08:47:52.930Z,995.83
2017-09-22T08:49:02.890Z,995.8
2017-09-22T08:50:12.526Z,995.8
2017-09-22T08:51:22.161Z,995.79
2017-09-22T08:52:32.440Z,995.76
2017-09-22T08:53:42.397Z,995.74
2017-09-22T08:54:52.672Z,995.79
2017-09-22T08:56:02.641Z,995.77
2017-09-22T08:57:12.592Z,995.77
2017-09-22T08:58:22.226Z,995.79
2017-09-22T08:59:32.187Z,995.81
2017-09-22T09:00:41.823Z,995.83
2017-09-22T09:01:51.771Z,995.81
2017-09-22T09:03:02.049Z,995.77
2017-09-22T09:04:12.325Z,995.76
2017-09-22T09:05:22.319Z,995.78
2017-09-22T09:06:32.276Z,995.79
2017-09-22T09:07:42.235Z,995.82
2017-09-22T09:08:52.519Z,995.83
2017-09-22T09:10:02.840Z,995.85
2017-09-22T09:11:13.126Z,995.88
2017-09-22T09:12:23.081Z,995.9
2017-09-22T09:13:32.393Z,995.91
2017-09-22T09:14:42.671Z,995.94
2017-09-22T09:15:52.620Z,995.93
2017-09-22T09:17:02.573Z,995.92
2017-09-22T09:18:12.536Z,995.88
2017-09-22T09:19:22.491Z,995.88
2017-09-22T09:20:32.453Z,995.88
2017-09-22T09:21:42.730Z,995.84
2017-09-22T09:22:53.004Z,995.87
2017-09-22T09:24:02.970Z,995.86
2017-09-22T09:25:12.603Z,995.96
2017-09-22T09:26:22.556Z,995.91
2017-09-22T09:27:32.833Z,995.94
2017-09-22T09:28:42.788Z,995.94
2017-09-22T09:29:52.741Z,995.91
2017-09-22T09:31:02.695Z,995.85
2017-09-22T09:32:12.643Z,995.84
2017-09-22T09:33:22.596Z,995.87
2017-09-22T09:34:32.869Z,995.84
2017-09-22T09:35:42.819Z,995.89
2017-09-22T09:36:52.447Z,995.92
2017-09-22T09:38:02.075Z,995.82
2017-09-22T09:39:12.030Z,995.89
2017-09-22T09:40:21.662Z,995.85
2017-09-22T09:41:31.944Z,995.87
2017-09-22T09:42:41.260Z,995.88
2017-09-22T09:43:50.894Z,995.91
2017-09-22T09:45:00.854Z,995.92
2017-09-22T09:46:10.489Z,995.88
2017-09-22T09:47:20.785Z,995.94
2017-09-22T09:48:31.062Z,995.9
2017-09-22T09:49:41.019Z,995.92
2017-09-22T09:50:51.304Z,995.86
2017-09-22T09:52:00.936Z,995.91
2017-09-22T09:53:10.903Z,995.87
2017-09-22T09:54:20.853Z,995.86
2017-09-22T09:55:30.489Z,995.86
2017-09-22T09:56:40.445Z,995.89
2017-09-22T09:57:50.401Z,995.86
2017-09-22T09:59:00.035Z,995.9
2017-09-22T10:00:10.309Z,995.88
2017-09-22T10:01:20.582Z,995.87
2017-09-22T10:02:30.216Z,995.85
2017-09-22T10:03:40.178Z,995.92
2017-09-22T10:04:50.452Z,995.91
2017-09-22T10:06:00.727Z,995.96
2017-09-22T10:07:11.001Z,995.97
2017-09-22T10:08:20.640Z,996.01
2017-09-22T10:09:30.592Z,996
2017-09-22T10:10:40.871Z,995.98
2017-09-22T10:11:51.152Z,995.99
2017-09-22T10:13:01.107Z,995.99
2017-09-22T10:14:11.059Z,995.92
2017-09-22T10:15:21.021Z,995.98
2017-09-22T10:16:30.977Z,995.9
2017-09-22T10:17:41.272Z,995.84
2017-09-22T10:18:51.225Z,995.83
2017-09-22T10:20:01.506Z,995.86
2017-09-22T10:21:11.464Z,995.83
2017-09-22T10:22:21.432Z,995.82
2017-09-22T10:23:31.387Z,995.79
2017-09-22T10:24:41.663Z,995.88
2017-09-22T10:25:51.620Z,995.9
2017-09-22T10:27:01.574Z,995.91
2017-09-22T10:28:11.536Z,995.92
2017-09-22T10:29:21.491Z,995.91
2017-09-22T10:30:31.446Z,995.87
2017-09-22T10:31:41.731Z,995.9
2017-09-22T10:32:51.691Z,995.92
2017-09-22T10:34:01.963Z,995.97
2017-09-22T10:35:12.286Z,995.96
2017-09-22T10:36:22.565Z,996
2017-09-22T10:37:32.525Z,996.02
2017-09-22T10:38:42.807Z,996.01
2017-09-22T10:39:52.783Z,996.02
2017-09-22T10:41:03.067Z,996.04
2017-09-22T10:42:13.353Z,995.98
2017-09-22T10:43:23.631Z,996.02
2017-09-22T10:44:33.259Z,996.05
2017-09-22T10:45:43.216Z,996.03
2017-09-22T10:46:53.167Z,996.05
2017-09-22T10:48:03.444Z,996
2017-09-22T10:49:13.091Z,995.99
2017-09-22T10:50:23.366Z,996.03
2017-09-22T10:51:33.647Z,996.07
2017-09-22T10:52:43.281Z,996.09
2017-09-22T10:53:53.561Z,996.1
2017-09-22T10:55:03.518Z,996.09
2017-09-22T10:56:13.801Z,996.06
2017-09-22T10:57:24.081Z,996.07
2017-09-22T10:58:34.035Z,996.07
2017-09-22T10:59:44.324Z,996.05
2017-09-22T11:00:53.956Z,996.05
2017-09-22T11:02:03.584Z,996.07
2017-09-22T11:03:13.541Z,996.04
2017-09-22T11:04:23.830Z,996.03
2017-09-22T11:05:34.105Z,996.02
2017-09-22T11:06:44.063Z,996.05
2017-09-22T11:07:54.339Z,996.03
2017-09-22T11:09:04.637Z,996.07
2017-09-22T11:10:14.918Z,996.07
2017-09-22T11:11:24.868Z,996.09
2017-09-22T11:12:34.823Z,996.12
2017-09-22T11:13:45.106Z,996.07
2017-09-22T11:14:54.739Z,996.07
2017-09-22T11:16:04.696Z,996.11
2017-09-22T11:17:14.648Z,996.08
2017-09-22T11:18:24.605Z,996.13
2017-09-22T11:19:33.919Z,996.13
2017-09-22T11:20:44.196Z,996.07
2017-09-22T11:21:54.153Z,996.01
2017-09-22T11:23:04.111Z,996.01
2017-09-22T11:24:14.067Z,996.02
2017-09-22T11:25:24.346Z,995.95
2017-09-22T11:26:34.304Z,995.93
2017-09-22T11:27:44.260Z,995.91
2017-09-22T11:28:54.217Z,995.89
2017-09-22T11:30:04.168Z,995.85
2017-09-22T11:31:13.802Z,995.87
2017-09-22T11:32:23.755Z,995.85
2017-09-22T11:33:33.707Z,995.85
2017-09-22T11:34:43.659Z,995.84
2017-09-22T11:35:53.935Z,995.88
2017-09-22T11:37:04.208Z,995.86
2017-09-22T11:38:14.161Z,995.86
2017-09-22T11:39:24.121Z,995.82
2017-09-22T11:40:34.396Z,995.82
2017-09-22T11:41:43.708Z,995.86
2017-09-22T11:42:53.988Z,995.84
2017-09-22T11:44:04.263Z,995.89
2017-09-22T11:45:14.217Z,995.88
2017-09-22T11:46:24.186Z,995.87
2017-09-22T11:47:34.465Z,995.9
2017-09-22T11:48:44.747Z,995.92
2017-09-22T11:49:55.061Z,995.93
2017-09-22T11:51:05.023Z,995.92
2017-09-22T11:52:14.987Z,995.93
2017-09-22T11:53:24.940Z,995.91
2017-09-22T11:54:34.574Z,995.92
2017-09-22T11:55:44.850Z,995.97
2017-09-22T11:56:54.481Z,995.97
2017-09-22T11:58:04.438Z,995.96
2017-09-22T11:59:14.722Z,996.02
2017-09-22T12:00:25.002Z,996
2017-09-22T12:01:35.279Z,995.95
2017-09-22T12:02:45.555Z,995.96
2017-09-22T12:03:55.836Z,995.92
2017-09-22T12:05:05.794Z,995.97
2017-09-22T12:06:15.112Z,995.93
2017-09-22T12:07:24.748Z,995.92
2017-09-22T12:08:34.704Z,995.94
2017-09-22T12:09:44.660Z,995.89
2017-09-22T12:10:54.617Z,995.9
2017-09-22T12:12:04.578Z,995.9
2017-09-22T12:13:14.540Z,995.93
2017-09-22T12:14:24.490Z,995.92
2017-09-22T12:15:34.780Z,995.95
2017-09-22T12:16:44.736Z,995.93
2017-09-22T12:17:55.013Z,995.9
2017-09-22T12:19:04.650Z,995.88
2017-09-22T12:20:14.618Z,995.85
2017-09-22T12:21:24.903Z,995.86
2017-09-22T12:22:34.858Z,995.82
2017-09-22T12:23:44.817Z,995.85
2017-09-22T12:24:55.107Z,995.85
2017-09-22T12:26:05.063Z,995.82
2017-09-22T12:27:14.697Z,995.81
2017-09-22T12:28:24.653Z,995.82
2017-09-22T12:29:34.938Z,995.83
2017-09-22T12:30:45.217Z,995.85
2017-09-22T12:31:54.853Z,995.83
2017-09-22T12:33:05.138Z,995.86
2017-09-22T12:34:15.101Z,995.81
2017-09-22T12:35:25.383Z,995.85
2017-09-22T12:36:35.344Z,995.86
2017-09-22T12:37:45.623Z,995.86
2017-09-22T12:38:55.581Z,995.88
2017-09-22T12:40:05.878Z,995.86
2017-09-22T12:41:15.831Z,995.88
2017-09-22T12:42:26.109Z,995.86
2017-09-22T12:43:36.385Z,995.89
2017-09-22T12:44:46.670Z,995.89
2017-09-22T12:45:56.955Z,995.87
2017-09-22T12:47:06.914Z,995.86
2017-09-22T12:48:16.883Z,995.83
2017-09-22T12:49:26.837Z,995.83
2017-09-22T12:50:36.472Z,995.83
2017-09-22T12:51:46.750Z,995.82
2017-09-22T12:52:57.037Z,995.8
2017-09-22T12:54:07.005Z,995.82
2017-09-22T12:55:16.966Z,995.78
2017-09-22T12:56:26.924Z,995.78
2017-09-22T12:57:37.202Z,995.76
2017-09-22T12:58:47.166Z,995.78
2017-09-22T12:59:57.453Z,995.78
2017-09-22T13:01:07.419Z,995.76
2017-09-22T13:02:17.389Z,995.75
2017-09-22T13:03:27.669Z,995.74
2017-09-22T13:04:37.621Z,995.74
2017-09-22T13:05:47.580Z,995.69
2017-09-22T13:06:57.880Z,995.68
2017-09-22T13:08:07.837Z,995.62
2017-09-22T13:09:17.464Z,995.65
2017-09-22T13:10:27.753Z,995.63
2017-09-22T13:11:38.030Z,995.61
2017-09-22T13:12:47.993Z,995.65
2017-09-22T13:13:58.273Z,995.64
2017-09-22T13:15:07.975Z,995.62
2017-09-22T13:16:18.291Z,995.62
2017-09-22T13:17:28.244Z,995.63
2017-09-22T13:18:38.200Z,995.61
2017-09-22T13:19:48.165Z,995.63
2017-09-22T13:20:57.800Z,995.61
2017-09-22T13:22:07.755Z,995.62
2017-09-22T13:23:17.707Z,995.54
2017-09-22T13:24:27.991Z,995.51
2017-09-22T13:25:37.947Z,995.49
2017-09-22T13:26:47.613Z,995.49
2017-09-22T13:27:57.887Z,995.5
2017-09-22T13:29:07.522Z,995.49
2017-09-22T13:30:17.166Z,995.51
2017-09-22T13:31:27.127Z,995.52
2017-09-22T13:32:37.406Z,995.51
2017-09-22T13:33:47.362Z,995.5
2017-09-22T13:34:57.318Z,995.49
2017-09-22T13:36:07.601Z,995.5
2017-09-22T13:37:17.232Z,995.51
2017-09-22T13:38:27.188Z,995.51
2017-09-22T13:39:37.145Z,995.51
2017-09-22T13:40:47.098Z,995.54
2017-09-22T13:41:57.378Z,995.52
2017-09-22T13:43:07.665Z,995.52
2017-09-22T13:44:17.982Z,995.51
2017-09-22T13:45:28.266Z,995.52
2017-09-22T13:46:37.918Z,995.53
2017-09-22T13:47:48.193Z,995.58
2017-09-22T13:48:58.146Z,995.56
2017-09-22T13:50:08.109Z,995.56
2017-09-22T13:51:18.400Z,995.55
2017-09-22T13:52:28.357Z,995.56
2017-09-22T13:53:38.312Z,995.57
2017-09-22T13:54:48.595Z,995.58
2017-09-22T13:55:58.879Z,995.57
2017-09-22T13:57:08.512Z,995.54
2017-09-22T13:58:18.485Z,995.5
2017-09-22T13:59:28.442Z,995.49
2017-09-22T14:00:38.402Z,995.52
2017-09-22T14:01:48.367Z,995.49
2017-09-22T14:02:58.332Z,995.58
2017-09-22T14:04:08.616Z,995.58
2017-09-22T14:05:18.580Z,995.57
2017-09-22T14:06:28.863Z,995.57
2017-09-22T14:07:39.139Z,995.55
2017-09-22T14:08:49.106Z,995.57
2017-09-22T14:09:59.063Z,995.56
2017-09-22T14:11:09.341Z,995.58
2017-09-22T14:12:19.300Z,995.57
2017-09-22T14:13:29.253Z,995.64
2017-09-22T14:14:39.538Z,995.65
2017-09-22T14:15:49.814Z,995.68
2017-09-22T14:17:00.100Z,995.69
2017-09-22T14:18:10.058Z,995.67
2017-09-22T14:19:20.013Z,995.72
2017-09-22T14:20:30.296Z,995.77
2017-09-22T14:21:40.254Z,995.73
2017-09-22T14:22:50.211Z,995.79
2017-09-22T14:24:00.496Z,995.73
2017-09-22T14:25:09.808Z,995.82
2017-09-22T14:26:20.093Z,995.77
2017-09-22T14:27:30.052Z,995.81
2017-09-22T14:28:40.007Z,995.79
2017-09-22T14:29:49.322Z,995.77
2017-09-22T14:30:59.597Z,995.73
2017-09-22T14:32:09.555Z,995.74
2017-09-22T14:33:19.191Z,995.79
2017-09-22T14:34:28.824Z,995.78
2017-09-22T14:35:38.781Z,995.73
2017-09-22T14:36:48.739Z,995.73